createdAt,value
2018-09-11T00:01:04.875Z,89.09
2018-09-11T00:02:40.125Z,88.78
2018-09-11T00:04:15.839Z,89.51
2018-09-11T00:05:51.254Z,89.00
2018-09-11T00:07:27.052Z,89.39
2018-09-11T00:09:02.289Z,89.56
2018-09-11T00:10:37.231Z,89.35
2018-09-11T00:12:14.085Z,90.29
2018-09-11T00:13:50.081Z,89.39
2018-09-11T00:15:25.682Z,89.18
2018-09-11T00:17:00.808Z,88.93
2018-09-11T00:18:36.264Z,88.62
2018-09-11T00:20:12.158Z,89.04
2018-09-11T00:21:47.313Z,88.83
2018-09-11T00:23:23.079Z,89.12
2018-09-11T00:24:59.808Z,88.62
2018-09-11T00:26:34.720Z,89.04
2018-09-11T00:28:09.640Z,89.39
2018-09-11T00:29:46.350Z,89.70
2018-09-11T00:31:25.740Z,89.79
2018-09-11T00:33:01.939Z,89.58
2018-09-11T00:34:37.599Z,89.38
2018-09-11T00:36:15.080Z,89.21
2018-09-11T00:37:50.660Z,89.58
2018-09-11T00:39:26.367Z,89.73
2018-09-11T00:41:03.389Z,89.94
2018-09-11T00:42:38.503Z,88.76
2018-09-11T00:44:13.862Z,89.76
2018-09-11T00:45:52.435Z,89.85
2018-09-11T00:47:27.274Z,89.65
2018-09-11T00:49:03.400Z,89.87
2018-09-11T00:50:38.200Z,89.80
2018-09-11T00:52:13.575Z,89.70
2018-09-11T00:53:49.321Z,90.23
2018-09-11T00:55:25.892Z,89.99
2018-09-11T00:57:01.163Z,90.62
2018-09-11T00:58:40.057Z,89.92
2018-09-11T01:00:18.185Z,90.04
2018-09-11T01:01:59.322Z,90.16
2018-09-11T01:03:38.331Z,89.78
2018-09-11T01:05:24.716Z,89.80
2018-09-11T01:07:08.691Z,90.87
2018-09-11T01:08:50.605Z,90.32
2018-09-11T01:10:32.386Z,90.42
2018-09-11T01:12:11.046Z,91.03
2018-09-11T01:13:48.749Z,91.05
2018-09-11T01:15:27.484Z,90.67
2018-09-11T01:17:06.985Z,90.89
2018-09-11T01:18:46.467Z,91.15
2018-09-11T01:20:23.919Z,90.96
2018-09-11T01:22:06.306Z,90.41
2018-09-11T01:23:42.771Z,90.31
2018-09-11T01:25:20.290Z,90.84
2018-09-11T01:26:57.057Z,91.15
2018-09-11T01:28:31.983Z,91.07
2018-09-11T01:30:08.909Z,90.79
2018-09-11T01:31:45.530Z,91.69
2018-09-11T01:33:21.205Z,91.57
2018-09-11T01:34:57.387Z,91.53
2018-09-11T01:36:32.607Z,91.85
2018-09-11T01:38:09.558Z,91.57
2018-09-11T01:39:45.129Z,91.49
2018-09-11T01:41:20.684Z,91.59
2018-09-11T01:42:56.089Z,91.17
2018-09-11T01:44:31.926Z,91.75
2018-09-11T01:46:08.042Z,91.89
2018-09-11T01:47:43.670Z,92.00
2018-09-11T01:49:19.944Z,91.75
2018-09-11T01:50:56.004Z,92.07
2018-09-11T01:52:31.510Z,92.08
2018-09-11T01:54:06.833Z,92.73
2018-09-11T01:55:41.894Z,91.64
2018-09-11T01:57:17.993Z,92.42
2018-09-11T01:58:56.599Z,91.99
2018-09-11T02:00:31.948Z,92.16
2018-09-11T02:02:07.427Z,92.52
2018-09-11T02:03:42.699Z,92.56
2018-09-11T02:05:18.664Z,92.71
2018-09-11T02:06:53.652Z,92.84
2018-09-11T02:08:29.161Z,92.01
2018-09-11T02:10:04.591Z,92.38
2018-09-11T02:11:40.877Z,92.51
2018-09-11T02:13:16.897Z,93.02
2018-09-11T02:14:53.835Z,93.19
2018-09-11T02:16:29.053Z,92.82
2018-09-11T02:18:07.697Z,92.34
2018-09-11T02:19:42.801Z,92.83
2018-09-11T02:21:18.847Z,93.24
2018-09-11T02:22:53.867Z,92.98
2018-09-11T02:24:29.047Z,92.97
2018-09-11T02:26:06.171Z,92.91
2018-09-11T02:27:41.286Z,93.45
2018-09-11T02:29:16.372Z,92.72
2018-09-11T02:30:54.201Z,92.94
2018-09-11T02:32:29.891Z,93.40
2018-09-11T02:34:05.929Z,93.13
2018-09-11T02:35:41.208Z,93.51
2018-09-11T02:37:16.464Z,92.87
2018-09-11T02:38:51.706Z,92.95
2018-09-11T02:40:26.773Z,92.78
2018-09-11T02:42:02.373Z,93.51
2018-09-11T02:43:38.590Z,93.63
2018-09-11T02:45:14.990Z,93.67
2018-09-11T02:46:50.210Z,93.33
2018-09-11T02:48:25.381Z,93.29
2018-09-11T02:50:01.245Z,93.91
2018-09-11T02:51:36.899Z,93.72
2018-09-11T02:53:11.965Z,93.59
2018-09-11T02:54:47.308Z,93.77
2018-09-11T02:56:23.693Z,93.89
2018-09-11T02:57:58.992Z,93.74
2018-09-11T02:59:34.333Z,93.74
2018-09-11T03:01:10.716Z,94.11
2018-09-11T03:02:47.586Z,94.18
2018-09-11T03:04:23.188Z,93.92
2018-09-11T03:05:58.688Z,94.13
2018-09-11T03:07:33.928Z,94.28
2018-09-11T03:09:12.571Z,93.87
2018-09-11T03:10:48.028Z,94.08
2018-09-11T03:12:25.994Z,93.62
2018-09-11T03:14:01.983Z,94.57
2018-09-11T03:15:37.282Z,94.18
2018-09-11T03:17:14.072Z,93.98
2018-09-11T03:18:49.559Z,93.91
2018-09-11T03:20:25.890Z,94.42
2018-09-11T03:22:01.494Z,94.55
2018-09-11T03:23:36.830Z,93.85
2018-09-11T03:25:13.070Z,93.86
2018-09-11T03:26:51.570Z,93.96
2018-09-11T03:28:27.579Z,94.98
2018-09-11T03:30:05.608Z,94.22
2018-09-11T03:31:40.908Z,94.75
2018-09-11T03:33:16.142Z,94.98
2018-09-11T03:34:51.924Z,94.59
2018-09-11T03:36:27.905Z,94.92
2018-09-11T03:38:03.418Z,94.60
2018-09-11T03:39:39.299Z,95.23
2018-09-11T03:41:14.493Z,94.69
2018-09-11T03:42:49.705Z,94.58
2018-09-11T03:44:25.963Z,94.36
2018-09-11T03:46:01.666Z,95.11
2018-09-11T03:47:36.515Z,94.27
2018-09-11T03:49:12.670Z,94.32
2018-09-11T03:50:48.478Z,94.81
2018-09-11T03:52:23.637Z,94.62
2018-09-11T03:53:58.732Z,94.65
2018-09-11T03:55:33.620Z,94.36
2018-09-11T03:57:08.578Z,94.55
2018-09-11T03:58:43.657Z,94.91
2018-09-11T04:00:18.733Z,94.62
2018-09-11T04:01:54.492Z,95.05
2018-09-11T04:03:29.760Z,94.85
2018-09-11T04:05:04.717Z,94.35
2018-09-11T04:06:40.019Z,95.58
2018-09-11T04:08:14.835Z,94.82
2018-09-11T04:09:50.275Z,94.82
2018-09-11T04:11:25.620Z,95.34
2018-09-11T04:13:00.464Z,95.09
2018-09-11T04:14:35.257Z,94.71
2018-09-11T04:16:10.170Z,94.60
2018-09-11T04:17:45.564Z,94.64
2018-09-11T04:19:20.371Z,94.98
2018-09-11T04:20:56.319Z,95.35
2018-09-11T04:22:31.445Z,95.16
2018-09-11T04:24:06.258Z,95.00
2018-09-11T04:25:41.883Z,94.69
2018-09-11T04:27:17.056Z,95.40
2018-09-11T04:28:54.115Z,95.07
2018-09-11T04:30:29.151Z,95.73
2018-09-11T04:32:04.776Z,94.86
2018-09-11T04:33:40.366Z,95.00
2018-09-11T04:35:17.672Z,94.92
2018-09-11T04:36:53.400Z,95.20
2018-09-11T04:38:28.478Z,95.07
2018-09-11T04:40:03.423Z,95.21
2018-09-11T04:41:40.910Z,95.27
2018-09-11T04:43:16.387Z,94.72
2018-09-11T04:44:51.956Z,94.70
2018-09-11T04:46:27.498Z,94.78
2018-09-11T04:48:02.913Z,95.82
2018-09-11T04:49:39.091Z,94.94
2018-09-11T04:51:14.867Z,94.47
2018-09-11T04:52:49.920Z,95.36
2018-09-11T04:54:25.338Z,95.04
2018-09-11T04:56:02.146Z,95.33
2018-09-11T04:57:37.757Z,94.97
2018-09-11T04:59:12.684Z,94.68
2018-09-11T05:00:48.220Z,94.77
2018-09-11T05:02:23.054Z,94.66
2018-09-11T05:03:58.125Z,94.69
2018-09-11T05:05:33.135Z,94.35
2018-09-11T05:07:08.281Z,94.75
2018-09-11T05:08:44.142Z,95.15
2018-09-11T05:10:19.149Z,94.12
2018-09-11T05:11:54.808Z,94.93
2018-09-11T05:13:30.045Z,94.72
2018-09-11T05:15:07.362Z,94.46
2018-09-11T05:16:43.960Z,94.36
2018-09-11T05:18:22.200Z,94.46
2018-09-11T05:19:59.186Z,94.20
2018-09-11T05:21:34.192Z,94.67
2018-09-11T05:23:10.167Z,94.12
2018-09-11T05:24:45.970Z,94.50
2018-09-11T05:26:24.376Z,93.94
2018-09-11T05:28:00.706Z,94.12
2018-09-11T05:29:43.330Z,93.86
2018-09-11T05:31:44.904Z,94.36
2018-09-11T05:35:18.207Z,93.81
2018-09-11T05:36:53.327Z,93.75
2018-09-11T05:38:28.501Z,93.59
2018-09-11T05:40:03.589Z,93.38
2018-09-11T05:41:42.250Z,93.28
2018-09-11T05:43:17.241Z,93.46
2018-09-11T05:44:52.187Z,93.09
2018-09-11T05:46:28.272Z,92.62
2018-09-11T05:48:03.152Z,93.37
2018-09-11T05:49:38.079Z,92.68
2018-09-11T05:51:13.050Z,92.26
2018-09-11T05:52:47.916Z,92.82
2018-09-11T05:54:23.210Z,92.65
2018-09-11T05:56:02.300Z,92.25
2018-09-11T05:57:38.295Z,92.71
2018-09-11T05:59:13.116Z,92.05
2018-09-11T06:00:48.147Z,91.85
2018-09-11T06:02:23.431Z,91.81
2018-09-11T06:03:58.356Z,91.72
2018-09-11T06:05:33.235Z,91.53
2018-09-11T06:07:08.259Z,91.63
2018-09-11T06:08:44.299Z,92.07
2018-09-11T06:10:19.426Z,91.36
2018-09-11T06:11:54.628Z,91.01
2018-09-11T06:13:30.081Z,91.45
2018-09-11T06:15:07.924Z,90.34
2018-09-11T06:16:43.791Z,90.24
2018-09-11T06:18:19.171Z,90.17
2018-09-11T06:19:54.079Z,89.90
2018-09-11T06:21:29.316Z,90.72
2018-09-11T06:23:04.628Z,89.73
2018-09-11T06:24:40.415Z,89.59
2018-09-11T06:26:15.739Z,89.83
2018-09-11T06:27:52.247Z,89.51
2018-09-11T06:29:27.144Z,89.72
2018-09-11T06:31:03.736Z,89.85
2018-09-11T06:32:41.833Z,89.10
2018-09-11T06:34:16.652Z,88.62
2018-09-11T06:35:52.693Z,89.23
2018-09-11T06:37:28.039Z,88.20
2018-09-11T06:39:03.012Z,88.75
2018-09-11T06:40:38.186Z,88.91
2018-09-11T06:42:13.011Z,87.88
2018-09-11T06:43:48.443Z,88.58
2018-09-11T06:45:23.300Z,87.88
2018-09-11T06:46:58.632Z,87.83
2018-09-11T06:48:33.459Z,87.80
2018-09-11T06:50:09.278Z,87.32
2018-09-11T06:51:45.244Z,86.63
2018-09-11T06:53:22.275Z,87.26
2018-09-11T06:54:57.955Z,87.48
2018-09-11T06:56:33.350Z,86.97
2018-09-11T06:58:10.446Z,86.67
2018-09-11T06:59:45.575Z,85.67
2018-09-11T07:01:20.366Z,86.49
2018-09-11T07:02:55.360Z,86.22
2018-09-11T07:04:30.247Z,85.73
2018-09-11T07:06:06.221Z,85.33
2018-09-11T07:07:41.413Z,85.59
2018-09-11T07:09:18.193Z,85.35
2018-09-11T07:10:55.572Z,84.28
2018-09-11T07:12:32.600Z,84.62
2018-09-11T07:14:07.488Z,84.03
2018-09-11T07:15:43.082Z,84.38
2018-09-11T07:17:18.001Z,83.68
2018-09-11T07:18:53.747Z,83.65
2018-09-11T07:20:28.959Z,83.38
2018-09-11T07:22:05.484Z,83.11
2018-09-11T07:23:40.340Z,82.57
2018-09-11T07:25:16.303Z,83.13
2018-09-11T07:26:51.651Z,82.42
2018-09-11T07:28:28.013Z,81.69
2018-09-11T07:30:05.234Z,82.29
2018-09-11T07:31:40.608Z,81.53
2018-09-11T07:33:17.520Z,80.88
2018-09-11T07:34:53.785Z,81.49
2018-09-11T07:36:34.261Z,81.36
2018-09-11T07:38:09.766Z,80.75
2018-09-11T07:39:48.645Z,80.21
2018-09-11T07:41:24.057Z,80.15
2018-09-11T07:42:58.869Z,79.21
2018-09-11T07:44:34.443Z,79.28
2018-09-11T07:46:09.695Z,78.25
2018-09-11T07:47:44.614Z,77.76
2018-09-11T07:49:21.009Z,77.97
2018-09-11T07:50:59.785Z,77.23
2018-09-11T07:52:35.036Z,76.82
2018-09-11T07:54:10.087Z,76.85
2018-09-11T07:55:45.504Z,76.77
2018-09-11T07:57:20.272Z,76.36
2018-09-11T07:58:56.626Z,76.15
2018-09-11T08:00:34.636Z,76.26
2018-09-11T08:02:09.466Z,75.90
2018-09-11T08:03:45.840Z,75.56
2018-09-11T08:05:22.889Z,75.06
2018-09-11T08:07:00.329Z,74.67
2018-09-11T08:08:37.357Z,73.68
2018-09-11T08:10:17.024Z,74.03
2018-09-11T08:11:52.224Z,73.90
2018-09-11T08:13:29.441Z,73.32
2018-09-11T08:15:09.912Z,73.29
2018-09-11T08:16:44.724Z,72.39
2018-09-11T08:18:20.204Z,71.80
2018-09-11T08:19:58.684Z,71.91
2018-09-11T08:21:34.129Z,71.03
2018-09-11T08:23:09.265Z,70.92
2018-09-11T08:24:46.379Z,70.84
2018-09-11T08:26:21.606Z,71.07
2018-09-11T08:27:56.414Z,70.69
2018-09-11T08:29:35.112Z,69.78
2018-09-11T08:31:10.189Z,69.78
2018-09-11T08:32:45.954Z,69.65
2018-09-11T08:34:20.817Z,69.79
2018-09-11T08:35:57.323Z,69.49
2018-09-11T08:37:32.927Z,69.87
2018-09-11T08:39:12.305Z,69.45
2018-09-11T08:40:48.999Z,69.70
2018-09-11T08:42:23.966Z,69.95
2018-09-11T08:44:00.013Z,70.06
2018-09-11T08:45:36.759Z,70.44
2018-09-11T08:47:13.469Z,69.53
2018-09-11T08:48:49.731Z,68.93
2018-09-11T08:50:25.331Z,68.92
2018-09-11T08:52:00.649Z,68.71
2018-09-11T08:53:36.453Z,68.73
2018-09-11T08:55:13.977Z,68.36
2018-09-11T08:56:50.505Z,68.32
2018-09-11T08:58:25.945Z,68.15
2018-09-11T09:00:04.963Z,68.12
2018-09-11T09:01:41.186Z,67.91
2018-09-11T09:03:16.013Z,67.84
2018-09-11T09:04:50.925Z,67.15
2018-09-11T09:06:26.194Z,67.42
2018-09-11T09:08:02.412Z,67.83
2018-09-11T09:09:39.105Z,66.78
2018-09-11T09:11:14.660Z,67.30
2018-09-11T09:12:49.764Z,67.77
2018-09-11T09:14:25.065Z,66.80
2018-09-11T09:16:00.365Z,66.54
2018-09-11T09:17:35.611Z,67.83
2018-09-11T09:19:11.511Z,67.57
2018-09-11T09:20:49.266Z,66.72
2018-09-11T09:22:24.665Z,67.17
2018-09-11T09:24:00.135Z,67.13
2018-09-11T09:25:37.451Z,66.37
2018-09-11T09:27:13.190Z,66.76
2018-09-11T09:28:49.274Z,66.00
2018-09-11T09:30:28.523Z,64.79
2018-09-11T09:32:05.251Z,65.67
2018-09-11T09:33:40.829Z,65.47
2018-09-11T09:35:19.199Z,65.21
2018-09-11T09:36:54.436Z,65.38
2018-09-11T09:38:31.160Z,65.62
2018-09-11T09:40:11.099Z,65.73
2018-09-11T09:41:46.376Z,66.01
2018-09-11T09:43:22.593Z,66.34
2018-09-11T09:44:59.200Z,66.15
2018-09-11T09:46:35.107Z,66.12
2018-09-11T09:48:10.860Z,66.59
2018-09-11T09:49:47.304Z,65.35
2018-09-11T09:51:24.021Z,65.65
2018-09-11T09:53:01.366Z,65.30
2018-09-11T09:54:38.173Z,65.66
2018-09-11T09:56:15.049Z,65.10
2018-09-11T09:57:50.308Z,65.65
2018-09-11T09:59:26.812Z,65.03
2018-09-11T10:01:10.777Z,64.44
2018-09-11T10:03:16.776Z,65.12
2018-09-11T10:04:52.026Z,64.81
2018-09-11T10:06:28.083Z,63.74
2018-09-11T10:08:03.404Z,63.71
2018-09-11T10:09:38.609Z,64.53
2018-09-11T10:11:14.689Z,64.05
2018-09-11T10:12:51.741Z,62.21
2018-09-11T10:14:26.708Z,62.14
2018-09-11T10:16:03.732Z,61.70
2018-09-11T10:17:39.555Z,61.51
2018-09-11T10:19:15.366Z,62.04
2018-09-11T10:20:52.811Z,60.07
2018-09-11T10:22:28.174Z,60.29
2018-09-11T10:24:06.138Z,59.24
2018-09-11T10:25:41.590Z,60.72
2018-09-11T10:27:16.584Z,60.33
2018-09-11T10:28:53.445Z,59.97
2018-09-11T10:30:31.693Z,58.91
2018-09-11T10:32:08.052Z,59.01
2018-09-11T10:33:45.096Z,60.43
2018-09-11T10:35:23.719Z,59.63
2018-09-11T10:36:58.600Z,58.20
2018-09-11T10:38:33.839Z,57.73
2018-09-11T10:40:08.755Z,56.05
2018-09-11T10:41:45.222Z,56.69
2018-09-11T10:43:20.136Z,58.22
2018-09-11T10:44:55.820Z,57.46
2018-09-11T10:46:35.914Z,56.42
2018-09-11T10:48:11.179Z,55.59
2018-09-11T10:49:47.421Z,56.76
2018-09-11T10:51:23.510Z,55.19
2018-09-11T10:53:00.147Z,54.85
2018-09-11T10:54:34.992Z,53.88
2018-09-11T10:56:09.915Z,53.57
2018-09-11T10:57:45.075Z,52.38
2018-09-11T10:59:19.966Z,53.18
2018-09-11T11:00:55.416Z,52.67
2018-09-11T11:02:30.269Z,52.59
2018-09-11T11:04:05.467Z,51.92
2018-09-11T11:05:40.270Z,51.55
2018-09-11T11:07:15.482Z,51.02
2018-09-11T11:08:50.556Z,50.66
2018-09-11T11:10:33.078Z,50.71
2018-09-11T11:12:09.222Z,50.56
2018-09-11T11:13:44.194Z,50.63
2018-09-11T11:15:19.344Z,48.44
2018-09-11T11:16:54.555Z,50.30
2018-09-11T11:18:29.895Z,51.74
2018-09-11T11:20:05.269Z,52.94
2018-09-11T11:21:40.413Z,53.20
2018-09-11T11:23:16.594Z,51.75
2018-09-11T11:24:51.810Z,51.84
2018-09-11T11:26:29.306Z,51.44
2018-09-11T11:28:05.109Z,52.23
2018-09-11T11:29:40.613Z,51.81
2018-09-11T11:31:16.224Z,51.61
2018-09-11T11:32:52.777Z,50.57
2018-09-11T11:34:28.528Z,50.19
2018-09-11T11:36:06.162Z,51.33
2018-09-11T11:37:45.532Z,52.61
2018-09-11T11:39:22.185Z,52.50
2018-09-11T11:40:58.264Z,50.26
2018-09-11T11:42:36.213Z,51.36
2018-09-11T11:44:12.584Z,50.09
2018-09-11T11:45:52.525Z,49.68
2018-09-11T11:47:32.099Z,48.04
2018-09-11T11:49:08.371Z,47.79
2018-09-11T11:50:47.754Z,47.31
2018-09-11T11:52:23.565Z,47.85
2018-09-11T11:53:59.452Z,47.28
2018-09-11T11:55:34.784Z,47.34
2018-09-11T11:57:10.431Z,48.15
2018-09-11T11:58:46.928Z,46.67
2018-09-11T12:00:21.949Z,47.07
2018-09-11T12:01:57.454Z,46.78
2018-09-11T12:03:34.337Z,45.94
2018-09-11T12:05:11.772Z,46.99
2018-09-11T12:06:47.393Z,47.19
2018-09-11T12:08:24.613Z,47.15
2018-09-11T12:10:00.788Z,46.49
2018-09-11T12:11:36.132Z,45.45
2018-09-11T12:13:12.036Z,44.92
2018-09-11T12:14:52.717Z,46.98
2018-09-11T12:16:29.869Z,46.64
2018-09-11T12:18:06.845Z,45.53
2018-09-11T12:19:43.516Z,45.19
2018-09-11T12:21:18.394Z,45.56
2018-09-11T12:22:57.901Z,46.61
2018-09-11T12:24:33.799Z,45.80
2018-09-11T12:26:09.491Z,45.80
2018-09-11T12:27:44.707Z,45.72
2018-09-11T12:29:20.954Z,45.77
2018-09-11T12:30:57.439Z,43.35
2018-09-11T12:32:32.570Z,43.53
2018-09-11T12:34:10.649Z,43.43
2018-09-11T12:35:46.527Z,43.98
2018-09-11T12:37:23.250Z,44.36
2018-09-11T12:38:58.298Z,43.42
2018-09-11T12:40:34.775Z,43.24
2018-09-11T12:42:10.340Z,44.41
2018-09-11T12:43:46.200Z,43.62
2018-09-11T12:45:23.321Z,44.77
2018-09-11T12:47:02.880Z,43.93
2018-09-11T12:48:43.116Z,43.64
2018-09-11T12:50:19.763Z,43.13
2018-09-11T12:51:59.728Z,41.62
2018-09-11T12:53:36.276Z,43.37
2018-09-11T12:55:13.678Z,43.67
2018-09-11T12:56:50.220Z,41.78
2018-09-11T12:58:26.270Z,44.01
2018-09-11T13:00:04.811Z,44.39
2018-09-11T13:01:41.282Z,43.03
2018-09-11T13:03:19.470Z,43.86
2018-09-11T13:04:55.526Z,43.63
2018-09-11T13:06:32.448Z,44.64
2018-09-11T13:08:08.272Z,44.59
2018-09-11T13:09:47.389Z,44.31
2018-09-11T13:11:24.083Z,45.11
2018-09-11T13:13:00.752Z,44.14
2018-09-11T13:14:40.774Z,41.90
2018-09-11T13:16:22.052Z,42.44
2018-09-11T13:18:02.031Z,41.83
2018-09-11T13:19:39.385Z,41.66
2018-09-11T13:21:17.444Z,42.47
2018-09-11T13:22:55.347Z,42.86
2018-09-11T13:24:40.397Z,41.68
2018-09-11T13:26:19.297Z,41.73
2018-09-11T13:27:56.971Z,42.12
2018-09-11T13:29:35.712Z,42.97
2018-09-11T13:31:13.362Z,42.00
2018-09-11T13:32:51.105Z,42.73
2018-09-11T13:34:32.640Z,41.45
2018-09-11T13:36:12.385Z,42.30
2018-09-11T13:37:48.434Z,41.91
2018-09-11T13:39:25.575Z,42.23
2018-09-11T13:41:01.018Z,42.71
2018-09-11T13:42:37.776Z,43.29
2018-09-11T13:44:14.406Z,43.63
2018-09-11T13:45:57.034Z,40.32
2018-09-11T13:47:35.083Z,42.27
2018-09-11T13:49:11.858Z,41.82
2018-09-11T13:50:49.803Z,42.01
2018-09-11T13:52:26.134Z,41.40
2018-09-11T13:54:01.965Z,42.40
2018-09-11T13:55:40.657Z,42.46
2018-09-11T13:57:20.035Z,41.98
2018-09-11T13:58:56.525Z,42.72
2018-09-11T14:00:33.884Z,43.03
2018-09-11T14:02:12.118Z,42.03
2018-09-11T14:03:50.679Z,43.09
2018-09-11T14:05:28.623Z,42.54
2018-09-11T14:07:11.598Z,42.27
2018-09-11T14:08:49.316Z,43.63
2018-09-11T14:10:32.112Z,42.25
2018-09-11T14:12:09.397Z,43.31
2018-09-11T14:13:46.911Z,42.98
2018-09-11T14:15:24.291Z,43.08
2018-09-11T14:17:01.348Z,43.46
2018-09-11T14:18:37.022Z,42.06
2018-09-11T14:20:12.767Z,41.84
2018-09-11T14:21:48.751Z,41.19
2018-09-11T14:23:25.547Z,41.97
2018-09-11T14:25:01.080Z,41.88
2018-09-11T14:26:37.112Z,41.41
2018-09-11T14:28:15.260Z,40.46
2018-09-11T14:29:52.756Z,40.54
2018-09-11T14:31:31.779Z,40.86
2018-09-11T14:33:10.319Z,41.45
2018-09-11T14:34:51.071Z,41.16
2018-09-11T14:36:37.546Z,40.12
2018-09-11T14:38:15.493Z,41.09
2018-09-11T14:39:51.777Z,40.51
2018-09-11T14:41:28.947Z,40.44
2018-09-11T14:43:05.014Z,39.47
2018-09-11T14:44:48.964Z,40.55
2018-09-11T14:46:28.781Z,40.38
2018-09-11T14:48:14.314Z,40.17
2018-09-11T14:49:52.523Z,39.74
2018-09-11T14:51:30.733Z,40.16
2018-09-11T14:53:07.630Z,39.25
2018-09-11T14:54:44.562Z,39.68
2018-09-11T14:56:22.725Z,39.42
2018-09-11T14:58:01.930Z,40.01
2018-09-11T14:59:42.276Z,39.02
2018-09-11T15:01:24.039Z,39.63
2018-09-11T15:03:00.946Z,39.67
2018-09-11T15:04:38.333Z,39.01
2018-09-11T15:06:23.024Z,39.58
2018-09-11T15:08:03.579Z,39.30
2018-09-11T15:09:47.629Z,39.07
2018-09-11T15:11:26.372Z,38.86
2018-09-11T15:13:04.553Z,37.93
2018-09-11T15:14:44.318Z,38.62
2018-09-11T15:16:23.363Z,37.73
2018-09-11T15:17:58.661Z,38.34
2018-09-11T15:19:34.845Z,38.29
2018-09-11T15:21:11.859Z,38.15
2018-09-11T15:22:50.242Z,39.15
2018-09-11T15:24:28.848Z,39.17
2018-09-11T15:26:06.106Z,38.66
2018-09-11T15:27:42.373Z,39.53
2018-09-11T15:29:19.256Z,39.49
2018-09-11T15:30:55.961Z,38.92
2018-09-11T15:32:35.551Z,38.85
2018-09-11T15:34:11.421Z,38.93
2018-09-11T15:35:49.562Z,38.77
2018-09-11T15:37:25.504Z,38.87
2018-09-11T15:39:09.575Z,38.99
2018-09-11T15:40:47.283Z,38.06
2018-09-11T15:42:23.604Z,38.45
2018-09-11T15:43:59.225Z,39.24
2018-09-11T15:45:36.254Z,39.20
2018-09-11T15:47:13.101Z,39.89
2018-09-11T15:48:50.853Z,39.91
2018-09-11T15:50:26.093Z,39.91
2018-09-11T15:52:01.600Z,39.52
2018-09-11T15:53:37.847Z,40.11
2018-09-11T15:55:14.583Z,40.63
2018-09-11T15:56:52.028Z,40.75
2018-09-11T15:58:36.556Z,40.65
2018-09-11T16:00:39.037Z,40.93
2018-09-11T16:02:43.626Z,40.45
2018-09-11T16:04:31.867Z,41.11
2018-09-11T16:06:11.951Z,41.03
2018-09-11T16:07:52.176Z,41.25
2018-09-11T16:09:31.356Z,40.96
2018-09-11T16:11:10.871Z,42.27
2018-09-11T16:12:48.263Z,42.48
2018-09-11T16:14:29.711Z,41.13
2018-09-11T16:16:08.123Z,42.47
2018-09-11T16:17:51.279Z,41.43
2018-09-11T16:19:30.957Z,41.76
2018-09-11T16:21:09.923Z,42.33
2018-09-11T16:22:48.502Z,41.81
2018-09-11T16:24:26.903Z,41.72
2018-09-11T16:26:09.122Z,42.70
2018-09-11T16:27:44.817Z,43.36
2018-09-11T16:29:23.588Z,42.51
2018-09-11T16:31:03.932Z,43.51
2018-09-11T16:32:43.939Z,43.43
2018-09-11T16:34:28.042Z,43.83
2018-09-11T16:36:06.293Z,43.96
2018-09-11T16:37:45.404Z,43.91
2018-09-11T16:39:37.343Z,43.53
2018-09-11T16:41:22.341Z,43.35
2018-09-11T16:43:07.966Z,43.44
2018-09-11T16:44:51.304Z,42.56
2018-09-11T16:46:35.676Z,43.15
2018-09-11T16:48:13.980Z,43.63
2018-09-11T16:49:57.365Z,44.01
2018-09-11T16:51:37.053Z,43.54
2018-09-11T16:53:13.260Z,43.88
2018-09-11T16:54:50.453Z,43.58
2018-09-11T16:56:29.017Z,44.66
2018-09-11T16:58:11.020Z,44.78
2018-09-11T16:59:49.069Z,45.03
2018-09-11T17:01:25.205Z,44.74
2018-09-11T17:03:09.235Z,44.78
2018-09-11T17:04:51.584Z,44.79
2018-09-11T17:06:36.076Z,44.76
2018-09-11T17:08:15.217Z,44.96
2018-09-11T17:09:52.658Z,45.96
2018-09-11T17:11:30.592Z,44.97
2018-09-11T17:13:10.624Z,45.65
2018-09-11T17:14:48.220Z,46.17
2018-09-11T17:16:25.934Z,45.81
2018-09-11T17:18:05.403Z,46.30
2018-09-11T17:19:42.263Z,46.25
2018-09-11T17:21:27.188Z,46.94
2018-09-11T17:23:03.956Z,46.68
2018-09-11T17:24:44.220Z,46.68
2018-09-11T17:26:23.266Z,46.33
2018-09-11T17:29:48.019Z,47.49
2018-09-11T17:31:31.283Z,47.91
2018-09-11T17:33:12.758Z,47.76
2018-09-11T17:34:52.707Z,47.77
2018-09-11T17:36:36.758Z,48.11
2018-09-11T17:38:18.687Z,47.32
2018-09-11T17:40:05.657Z,48.82
2018-09-11T17:43:29.136Z,48.38
2018-09-11T17:45:18.045Z,48.84
2018-09-11T17:47:01.780Z,49.65
2018-09-11T17:48:38.398Z,49.65
2018-09-11T17:50:14.333Z,50.04
2018-09-11T17:51:54.784Z,50.19
2018-09-11T17:53:32.669Z,50.25
2018-09-11T17:55:07.854Z,51.67
2018-09-11T17:56:48.403Z,51.67
2018-09-11T17:58:24.929Z,51.95
2018-09-11T18:00:06.494Z,52.07
2018-09-11T18:01:47.354Z,51.74
2018-09-11T18:03:24.790Z,51.92
2018-09-11T18:05:02.096Z,53.06
2018-09-11T18:06:38.664Z,53.44
2018-09-11T18:08:14.950Z,53.15
2018-09-11T18:09:57.509Z,54.45
2018-09-11T18:11:35.473Z,53.70
2018-09-11T18:13:13.092Z,53.71
2018-09-11T18:14:49.413Z,54.58
2018-09-11T18:16:26.420Z,54.23
2018-09-11T18:18:05.404Z,55.26
2018-09-11T18:19:42.976Z,54.69
2018-09-11T18:21:19.708Z,55.73
2018-09-11T18:22:57.777Z,55.64
2018-09-11T18:24:36.381Z,55.39
2018-09-11T18:26:12.325Z,55.33
2018-09-11T18:27:48.274Z,56.34
2018-09-11T18:29:37.479Z,57.17
2018-09-11T18:31:19.017Z,56.60
2018-09-11T18:33:06.746Z,57.68
2018-09-11T18:34:46.260Z,57.11
2018-09-11T18:36:25.757Z,57.19
2018-09-11T18:38:06.045Z,57.97
2018-09-11T18:39:43.935Z,57.85
2018-09-11T18:41:22.464Z,59.03
2018-09-11T18:43:17.408Z,59.19
2018-09-11T18:45:05.050Z,59.10
2018-09-11T18:46:49.256Z,59.02
2018-09-11T18:48:31.256Z,58.71
2018-09-11T18:54:12.658Z,59.43
2018-09-11T18:55:57.534Z,59.38
2018-09-11T18:57:37.431Z,60.43
2018-09-11T18:59:19.739Z,60.35
2018-09-11T19:01:01.479Z,60.42
2018-09-11T19:02:39.584Z,61.94
2018-09-11T19:04:15.612Z,61.10
2018-09-11T19:06:06.136Z,61.02
2018-09-11T19:07:50.170Z,62.11
2018-09-11T19:09:29.335Z,61.81
2018-09-11T19:11:05.942Z,61.93
2018-09-11T19:12:41.820Z,62.18
2018-09-11T19:14:28.607Z,62.43
2018-09-11T19:16:18.256Z,62.45
2018-09-11T19:17:56.617Z,63.04
2018-09-11T19:19:41.369Z,63.33
2018-09-11T19:21:26.587Z,62.44
2018-09-11T19:23:04.302Z,63.49
2018-09-11T19:24:52.622Z,64.28
2018-09-11T19:26:49.281Z,64.09
2018-09-11T19:28:29.849Z,64.92
2018-09-11T19:30:13.884Z,64.80
2018-09-11T19:31:50.975Z,64.35
2018-09-11T19:33:30.599Z,64.80
2018-09-11T19:35:12.035Z,64.28
2018-09-11T19:36:51.398Z,63.82
2018-09-11T19:38:33.820Z,64.22
2018-09-11T19:40:11.628Z,64.28
2018-09-11T19:41:54.644Z,64.40
2018-09-11T19:43:30.827Z,65.29
2018-09-11T19:45:13.245Z,65.53
2018-09-11T19:46:51.669Z,66.08
2018-09-11T19:48:27.220Z,65.95
2018-09-11T19:50:04.606Z,65.78
2018-09-11T19:51:44.873Z,66.42
2018-09-11T19:53:24.236Z,66.11
2018-09-11T19:55:04.098Z,65.75
2018-09-11T19:56:39.537Z,65.49
2018-09-11T19:58:24.623Z,65.98
2018-09-11T20:00:08.452Z,65.41
2018-09-11T20:01:48.646Z,65.28
2018-09-11T20:03:26.478Z,65.40
2018-09-11T20:05:05.445Z,66.13
2018-09-11T20:06:44.787Z,65.69
2018-09-11T20:08:23.546Z,66.18
2018-09-11T20:09:59.859Z,66.10
2018-09-11T20:11:37.063Z,66.80
2018-09-11T20:13:15.257Z,66.96
2018-09-11T20:14:51.440Z,66.04
2018-09-11T20:16:30.200Z,66.48
2018-09-11T20:18:12.029Z,66.10
2018-09-11T20:19:52.829Z,65.74
2018-09-11T20:21:34.117Z,66.10
2018-09-11T20:23:11.018Z,66.80
2018-09-11T20:24:49.904Z,67.26
2018-09-11T20:26:25.805Z,66.64
2018-09-11T20:28:07.359Z,66.50
2018-09-11T20:29:49.865Z,66.59
2018-09-11T20:31:34.623Z,66.73
2018-09-11T20:33:16.233Z,66.95
2018-09-11T20:34:57.353Z,66.79
2018-09-11T20:36:38.592Z,66.50
2018-09-11T20:38:16.166Z,66.69
2018-09-11T20:40:16.853Z,67.27
2018-09-11T20:41:54.927Z,67.57
2018-09-11T20:43:32.598Z,68.09
2018-09-11T20:45:16.505Z,68.25
2018-09-11T20:46:58.719Z,68.06
2018-09-11T20:48:52.166Z,68.88
2018-09-11T20:50:30.046Z,68.40
2018-09-11T20:52:11.718Z,68.68
2018-09-11T20:53:50.796Z,67.99
2018-09-11T20:55:29.500Z,68.84
2018-09-11T20:57:08.724Z,68.85
2018-09-11T20:58:47.656Z,68.64
2018-09-11T21:00:25.718Z,68.64
2018-09-11T21:02:01.520Z,68.60
2018-09-11T21:03:41.068Z,68.87
2018-09-11T21:05:20.629Z,69.30
2018-09-11T21:06:57.038Z,69.37